sensor_id;sensor_type;location;lat;lon;timestamp;P1;durP1;ratioP1;P2;durP2;ratioP2
53915;SDS011;39827;49.652;18.770;2023-03-01T00:01:00;492.10;;;454.33;;
53915;SDS011;39827;49.652;18.770;2023-03-01T00:03:30;472.00;;;433.95;;
53915;SDS011;39827;49.652;18.770;2023-03-01T00:05:56;352.85;;;325.23;;
53915;SDS011;39827;49.652;18.770;2023-03-01T00:08:22;309.55;;;286.00;;
53915;SDS011;39827;49.652;18.770;2023-03-01T00:10:47;297.65;;;274.70;;
53915;SDS011;39827;49.652;18.770;2023-03-01T00:13:13;411.88;;;382.08;;
53915;SDS011;39827;49.652;18.770;2023-03-01T00:15:39;381.60;;;352.75;;
53915;SDS011;39827;49.652;18.770;2023-03-01T00:18:06;429.30;;;394.88;;
53915;SDS011;39827;49.652;18.770;2023-03-01T00:20:32;390.02;;;358.88;;
53915;SDS011;39827;49.652;18.770;2023-03-01T00:22:57;322.40;;;297.38;;
53915;SDS011;39827;49.652;18.770;2023-03-01T00:25:23;311.85;;;287.80;;
53915;SDS011;39827;49.652;18.770;2023-03-01T00:27:48;296.42;;;273.45;;
53915;SDS011;39827;49.652;18.770;2023-03-01T00:30:14;292.27;;;269.20;;
53915;SDS011;39827;49.652;18.770;2023-03-01T00:32:40;284.20;;;262.30;;
53915;SDS011;39827;49.652;18.770;2023-03-01T00:35:05;289.63;;;267.83;;
53915;SDS011;39827;49.652;18.770;2023-03-01T00:37:31;274.70;;;253.40;;
53915;SDS011;39827;49.652;18.770;2023-03-01T00:39:56;351.23;;;323.10;;
53915;SDS011;39827;49.652;18.770;2023-03-01T00:42:22;400.83;;;368.27;;
53915;SDS011;39827;49.652;18.770;2023-03-01T00:44:47;584.25;;;538.63;;
53915;SDS011;39827;49.652;18.770;2023-03-01T00:47:13;469.33;;;431.48;;
53915;SDS011;39827;49.652;18.770;2023-03-01T00:49:39;410.00;;;377.48;;
53915;SDS011;39827;49.652;18.770;2023-03-01T00:52:05;428.70;;;395.88;;
53915;SDS011;39827;49.652;18.770;2023-03-01T00:54:30;446.65;;;411.45;;
53915;SDS011;39827;49.652;18.770;2023-03-01T00:56:56;392.27;;;361.65;;
53915;SDS011;39827;49.652;18.770;2023-03-01T00:59:21;373.80;;;343.95;;
53915;SDS011;39827;49.652;18.770;2023-03-01T01:01:47;386.60;;;354.95;;
53915;SDS011;39827;49.652;18.770;2023-03-01T01:04:13;391.60;;;361.42;;
53915;SDS011;39827;49.652;18.770;2023-03-01T01:06:40;482.75;;;445.63;;
53915;SDS011;39827;49.652;18.770;2023-03-01T01:09:08;484.98;;;448.25;;
53915;SDS011;39827;49.652;18.770;2023-03-01T01:11:42;429.17;;;396.48;;
53915;SDS011;39827;49.652;18.770;2023-03-01T01:14:12;538.08;;;496.20;;
53915;SDS011;39827;49.652;18.770;2023-03-01T01:16:38;599.22;;;553.35;;
53915;SDS011;39827;49.652;18.770;2023-03-01T01:19:04;603.83;;;557.67;;
53915;SDS011;39827;49.652;18.770;2023-03-01T01:21:29;622.40;;;574.85;;
53915;SDS011;39827;49.652;18.770;2023-03-01T01:23:55;657.47;;;607.67;;
53915;SDS011;39827;49.652;18.770;2023-03-01T01:26:23;634.08;;;585.90;;
53915;SDS011;39827;49.652;18.770;2023-03-01T01:28:50;625.78;;;578.13;;
53915;SDS011;39827;49.652;18.770;2023-03-01T01:31:16;470.58;;;435.25;;
53915;SDS011;39827;49.652;18.770;2023-03-01T01:33:42;421.70;;;389.15;;
53915;SDS011;39827;49.652;18.770;2023-03-01T01:36:08;402.77;;;370.75;;
53915;SDS011;39827;49.652;18.770;2023-03-01T01:38:34;439.23;;;404.40;;
53915;SDS011;39827;49.652;18.770;2023-03-01T01:41:00;388.60;;;357.50;;
53915;SDS011;39827;49.652;18.770;2023-03-01T01:43:27;380.88;;;350.77;;
53915;SDS011;39827;49.652;18.770;2023-03-01T01:45:59;449.08;;;413.00;;
53915;SDS011;39827;49.652;18.770;2023-03-01T01:48:38;409.13;;;377.02;;
53915;SDS011;39827;49.652;18.770;2023-03-01T01:51:14;540.65;;;498.67;;
53915;SDS011;39827;49.652;18.770;2023-03-01T01:53:44;464.10;;;428.05;;
53915;SDS011;39827;49.652;18.770;2023-03-01T01:56:13;410.58;;;380.38;;
53915;SDS011;39827;49.652;18.770;2023-03-01T01:58:41;483.17;;;447.67;;
53915;SDS011;39827;49.652;18.770;2023-03-01T02:01:08;503.42;;;467.02;;
53915;SDS011;39827;49.652;18.770;2023-03-01T02:03:34;433.15;;;402.00;;
53915;SDS011;39827;49.652;18.770;2023-03-01T02:08:36;371.48;;;341.73;;
53915;SDS011;39827;49.652;18.770;2023-03-01T02:11:06;378.63;;;348.38;;
53915;SDS011;39827;49.652;18.770;2023-03-01T02:13:33;318.17;;;294.15;;
53915;SDS011;39827;49.652;18.770;2023-03-01T02:16:02;344.50;;;318.88;;
53915;SDS011;39827;49.652;18.770;2023-03-01T02:18:29;443.13;;;407.00;;
53915;SDS011;39827;49.652;18.770;2023-03-01T02:23:20;337.40;;;311.23;;
53915;SDS011;39827;49.652;18.770;2023-03-01T02:28:44;415.55;;;382.38;;
53915;SDS011;39827;49.652;18.770;2023-03-01T02:31:10;349.73;;;323.20;;
53915;SDS011;39827;49.652;18.770;2023-03-01T02:33:59;314.33;;;290.95;;
53915;SDS011;39827;49.652;18.770;2023-03-01T02:36:30;328.90;;;304.27;;
53915;SDS011;39827;49.652;18.770;2023-03-01T02:38:59;427.83;;;393.35;;
53915;SDS011;39827;49.652;18.770;2023-03-01T02:41:28;441.90;;;406.88;;
53915;SDS011;39827;49.652;18.770;2023-03-01T02:43:56;424.90;;;391.02;;
53915;SDS011;39827;49.652;18.770;2023-03-01T02:46:23;358.60;;;330.75;;
53915;SDS011;39827;49.652;18.770;2023-03-01T02:48:57;355.02;;;327.20;;
53915;SDS011;39827;49.652;18.770;2023-03-01T02:51:34;502.65;;;461.42;;
53915;SDS011;39827;49.652;18.770;2023-03-01T02:54:33;405.88;;;373.88;;
53915;SDS011;39827;49.652;18.770;2023-03-01T02:57:05;357.98;;;330.25;;
53915;SDS011;39827;49.652;18.770;2023-03-01T02:59:31;407.02;;;374.88;;
53915;SDS011;39827;49.652;18.770;2023-03-01T03:02:04;520.38;;;476.77;;
53915;SDS011;39827;49.652;18.770;2023-03-01T03:04:30;483.00;;;443.58;;
53915;SDS011;39827;49.652;18.770;2023-03-01T03:06:55;383.75;;;353.63;;
53915;SDS011;39827;49.652;18.770;2023-03-01T03:09:21;365.17;;;336.48;;
53915;SDS011;39827;49.652;18.770;2023-03-01T03:11:46;402.33;;;370.55;;
53915;SDS011;39827;49.652;18.770;2023-03-01T03:14:13;587.42;;;541.63;;
53915;SDS011;39827;49.652;18.770;2023-03-01T03:16:44;617.20;;;569.75;;
53915;SDS011;39827;49.652;18.770;2023-03-01T03:19:12;549.00;;;506.63;;
53915;SDS011;39827;49.652;18.770;2023-03-01T03:21:37;469.35;;;431.50;;
53915;SDS011;39827;49.652;18.770;2023-03-01T03:24:03;489.15;;;449.15;;
53915;SDS011;39827;49.652;18.770;2023-03-01T03:26:30;520.83;;;478.35;;
53915;SDS011;39827;49.652;18.770;2023-03-01T03:28:56;525.05;;;484.70;;
53915;SDS011;39827;49.652;18.770;2023-03-01T03:31:22;515.17;;;474.60;;
53915;SDS011;39827;49.652;18.770;2023-03-01T03:33:47;522.45;;;481.00;;
53915;SDS011;39827;49.652;18.770;2023-03-01T03:36:16;573.83;;;528.53;;
53915;SDS011;39827;49.652;18.770;2023-03-01T03:38:44;598.15;;;551.88;;
53915;SDS011;39827;49.652;18.770;2023-03-01T03:41:11;707.80;;;654.45;;
53915;SDS011;39827;49.652;18.770;2023-03-01T03:43:37;698.95;;;646.03;;
53915;SDS011;39827;49.652;18.770;2023-03-01T03:46:04;684.60;;;632.28;;
53915;SDS011;39827;49.652;18.770;2023-03-01T03:48:31;657.22;;;607.17;;
53915;SDS011;39827;49.652;18.770;2023-03-01T03:50:59;662.55;;;612.33;;
53915;SDS011;39827;49.652;18.770;2023-03-01T03:53:25;577.42;;;533.03;;
53915;SDS011;39827;49.652;18.770;2023-03-01T03:55:52;485.02;;;446.30;;
53915;SDS011;39827;49.652;18.770;2023-03-01T03:58:19;402.35;;;370.60;;
53915;SDS011;39827;49.652;18.770;2023-03-01T04:00:48;306.50;;;282.83;;
53915;SDS011;39827;49.652;18.770;2023-03-01T04:03:16;373.73;;;344.65;;
53915;SDS011;39827;49.652;18.770;2023-03-01T04:05:43;435.55;;;401.13;;
53915;SDS011;39827;49.652;18.770;2023-03-01T04:08:09;411.95;;;378.77;;
53915;SDS011;39827;49.652;18.770;2023-03-01T04:10:36;470.90;;;433.55;;
53915;SDS011;39827;49.652;18.770;2023-03-01T04:13:03;540.92;;;497.15;;
53915;SDS011;39827;49.652;18.770;2023-03-01T04:15:30;446.35;;;408.38;;
53915;SDS011;39827;49.652;18.770;2023-03-01T04:17:57;544.92;;;499.92;;
53915;SDS011;39827;49.652;18.770;2023-03-01T04:20:24;496.95;;;455.77;;
53915;SDS011;39827;49.652;18.770;2023-03-01T04:25:41;415.63;;;382.88;;
53915;SDS011;39827;49.652;18.770;2023-03-01T04:28:14;441.70;;;406.65;;
53915;SDS011;39827;49.652;18.770;2023-03-01T04:30:40;474.92;;;435.58;;
53915;SDS011;39827;49.652;18.770;2023-03-01T04:33:06;538.33;;;494.02;;
53915;SDS011;39827;49.652;18.770;2023-03-01T04:35:33;344.00;;;317.83;;
53915;SDS011;39827;49.652;18.770;2023-03-01T04:37:59;286.23;;;263.17;;
53915;SDS011;39827;49.652;18.770;2023-03-01T04:40:25;280.58;;;257.67;;
53915;SDS011;39827;49.652;18.770;2023-03-01T04:42:50;229.82;;;212.80;;
53915;SDS011;39827;49.652;18.770;2023-03-01T04:45:16;274.83;;;252.30;;
53915;SDS011;39827;49.652;18.770;2023-03-01T04:47:42;213.00;;;196.98;;
53915;SDS011;39827;49.652;18.770;2023-03-01T04:50:09;259.38;;;239.77;;
53915;SDS011;39827;49.652;18.770;2023-03-01T04:52:36;291.23;;;268.05;;
53915;SDS011;39827;49.652;18.770;2023-03-01T04:55:03;339.83;;;313.02;;
53915;SDS011;39827;49.652;18.770;2023-03-01T04:57:29;343.00;;;316.33;;
53915;SDS011;39827;49.652;18.770;2023-03-01T04:59:55;278.90;;;258.08;;
53915;SDS011;39827;49.652;18.770;2023-03-01T05:02:20;362.45;;;334.10;;
53915;SDS011;39827;49.652;18.770;2023-03-01T05:04:46;402.13;;;370.33;;
53915;SDS011;39827;49.652;18.770;2023-03-01T05:07:11;393.17;;;362.58;;
53915;SDS011;39827;49.652;18.770;2023-03-01T05:09:38;426.38;;;392.00;;
53915;SDS011;39827;49.652;18.770;2023-03-01T05:12:04;405.95;;;373.65;;
53915;SDS011;39827;49.652;18.770;2023-03-01T05:14:29;381.52;;;351.25;;
53915;SDS011;39827;49.652;18.770;2023-03-01T05:16:55;407.00;;;373.77;;
53915;SDS011;39827;49.652;18.770;2023-03-01T05:19:29;417.88;;;383.73;;
53915;SDS011;39827;49.652;18.770;2023-03-01T05:21:56;434.10;;;398.27;;
53915;SDS011;39827;49.652;18.770;2023-03-01T05:24:32;332.13;;;306.77;;
53915;SDS011;39827;49.652;18.770;2023-03-01T05:26:59;334.77;;;309.05;;
53915;SDS011;39827;49.652;18.770;2023-03-01T05:29:26;549.03;;;503.38;;
53915;SDS011;39827;49.652;18.770;2023-03-01T05:32:00;566.65;;;521.22;;
53915;SDS011;39827;49.652;18.770;2023-03-01T05:34:31;526.15;;;482.83;;
53915;SDS011;39827;49.652;18.770;2023-03-01T05:36:58;419.45;;;385.25;;
53915;SDS011;39827;49.652;18.770;2023-03-01T05:39:24;419.00;;;385.15;;
53915;SDS011;39827;49.652;18.770;2023-03-01T05:41:55;430.88;;;395.48;;
53915;SDS011;39827;49.652;18.770;2023-03-01T05:44:22;458.60;;;421.30;;
53915;SDS011;39827;49.652;18.770;2023-03-01T05:46:48;444.15;;;408.05;;
53915;SDS011;39827;49.652;18.770;2023-03-01T05:49:14;473.92;;;434.98;;
53915;SDS011;39827;49.652;18.770;2023-03-01T05:51:40;487.23;;;446.88;;
53915;SDS011;39827;49.652;18.770;2023-03-01T05:54:07;531.25;;;486.45;;
53915;SDS011;39827;49.652;18.770;2023-03-01T05:56:33;622.13;;;571.88;;
53915;SDS011;39827;49.652;18.770;2023-03-01T05:59:00;601.15;;;553.17;;
53915;SDS011;39827;49.652;18.770;2023-03-01T06:01:26;616.45;;;568.42;;
53915;SDS011;39827;49.652;18.770;2023-03-01T06:03:51;663.20;;;612.25;;
53915;SDS011;39827;49.652;18.770;2023-03-01T06:06:17;613.47;;;566.05;;
53915;SDS011;39827;49.652;18.770;2023-03-01T06:08:43;625.38;;;576.28;;
53915;SDS011;39827;49.652;18.770;2023-03-01T06:11:09;693.90;;;641.15;;
53915;SDS011;39827;49.652;18.770;2023-03-01T06:13:34;639.33;;;589.95;;
53915;SDS011;39827;49.652;18.770;2023-03-01T06:16:00;678.63;;;626.72;;
53915;SDS011;39827;49.652;18.770;2023-03-01T06:18:25;701.47;;;647.72;;
53915;SDS011;39827;49.652;18.770;2023-03-01T06:20:54;710.17;;;656.05;;
53915;SDS011;39827;49.652;18.770;2023-03-01T06:23:20;669.90;;;619.10;;
53915;SDS011;39827;49.652;18.770;2023-03-01T06:25:46;685.47;;;633.60;;
53915;SDS011;39827;49.652;18.770;2023-03-01T06:28:12;656.63;;;606.20;;
53915;SDS011;39827;49.652;18.770;2023-03-01T06:30:37;609.63;;;561.22;;
53915;SDS011;39827;49.652;18.770;2023-03-01T06:33:02;664.35;;;613.20;;
53915;SDS011;39827;49.652;18.770;2023-03-01T06:35:28;695.38;;;641.88;;
53915;SDS011;39827;49.652;18.770;2023-03-01T06:37:56;700.58;;;647.10;;
53915;SDS011;39827;49.652;18.770;2023-03-01T06:40:22;696.38;;;643.17;;
53915;SDS011;39827;49.652;18.770;2023-03-01T06:42:48;606.60;;;559.88;;
53915;SDS011;39827;49.652;18.770;2023-03-01T06:45:16;573.00;;;528.42;;
53915;SDS011;39827;49.652;18.770;2023-03-01T06:47:42;616.60;;;570.00;;
53915;SDS011;39827;49.652;18.770;2023-03-01T06:50:08;644.22;;;595.47;;
53915;SDS011;39827;49.652;18.770;2023-03-01T06:52:34;595.78;;;550.10;;
53915;SDS011;39827;49.652;18.770;2023-03-01T06:55:00;524.65;;;485.05;;
53915;SDS011;39827;49.652;18.770;2023-03-01T06:57:25;544.55;;;502.90;;
53915;SDS011;39827;49.652;18.770;2023-03-01T06:59:51;488.52;;;450.25;;
53915;SDS011;39827;49.652;18.770;2023-03-01T07:02:16;590.72;;;544.83;;
53915;SDS011;39827;49.652;18.770;2023-03-01T07:04:42;541.40;;;498.92;;
53915;SDS011;39827;49.652;18.770;2023-03-01T07:07:08;545.65;;;503.30;;
53915;SDS011;39827;49.652;18.770;2023-03-01T07:09:33;504.00;;;464.73;;
53915;SDS011;39827;49.652;18.770;2023-03-01T07:11:59;493.52;;;454.63;;
53915;SDS011;39827;49.652;18.770;2023-03-01T07:14:25;473.90;;;437.48;;
53915;SDS011;39827;49.652;18.770;2023-03-01T07:16:51;518.22;;;475.20;;
53915;SDS011;39827;49.652;18.770;2023-03-01T07:19:17;573.60;;;525.95;;
53915;SDS011;39827;49.652;18.770;2023-03-01T07:21:43;537.65;;;497.00;;
53915;SDS011;39827;49.652;18.770;2023-03-01T07:24:09;655.50;;;607.45;;
53915;SDS011;39827;49.652;18.770;2023-03-01T07:26:35;866.70;;;804.85;;
53915;SDS011;39827;49.652;18.770;2023-03-01T07:29:02;898.80;;;830.72;;
53915;SDS011;39827;49.652;18.770;2023-03-01T07:31:28;834.03;;;771.70;;
53915;SDS011;39827;49.652;18.770;2023-03-01T07:33:54;643.28;;;599.97;;
53915;SDS011;39827;49.652;18.770;2023-03-01T07:36:20;580.17;;;540.22;;
53915;SDS011;39827;49.652;18.770;2023-03-01T07:38:46;541.00;;;502.38;;
53915;SDS011;39827;49.652;18.770;2023-03-01T07:41:12;530.60;;;492.55;;
53915;SDS011;39827;49.652;18.770;2023-03-01T07:43:37;501.33;;;464.90;;
53915;SDS011;39827;49.652;18.770;2023-03-01T07:46:03;464.80;;;430.38;;
53915;SDS011;39827;49.652;18.770;2023-03-01T07:48:29;449.15;;;414.92;;
53915;SDS011;39827;49.652;18.770;2023-03-01T07:50:58;432.02;;;398.80;;
53915;SDS011;39827;49.652;18.770;2023-03-01T07:53:24;427.70;;;395.77;;
53915;SDS011;39827;49.652;18.770;2023-03-01T07:55:50;472.40;;;436.27;;
53915;SDS011;39827;49.652;18.770;2023-03-01T07:58:25;480.40;;;443.73;;
53915;SDS011;39827;49.652;18.770;2023-03-01T08:00:50;492.17;;;454.83;;
53915;SDS011;39827;49.652;18.770;2023-03-01T08:03:15;463.30;;;428.25;;
53915;SDS011;39827;49.652;18.770;2023-03-01T08:05:41;418.02;;;385.90;;
53915;SDS011;39827;49.652;18.770;2023-03-01T08:08:06;425.80;;;392.02;;
53915;SDS011;39827;49.652;18.770;2023-03-01T08:10:31;397.45;;;366.85;;
53915;SDS011;39827;49.652;18.770;2023-03-01T08:12:57;364.92;;;336.10;;
53915;SDS011;39827;49.652;18.770;2023-03-01T08:15:22;387.20;;;358.02;;
53915;SDS011;39827;49.652;18.770;2023-03-01T08:17:48;385.33;;;356.55;;
53915;SDS011;39827;49.652;18.770;2023-03-01T08:20:15;378.05;;;349.98;;
53915;SDS011;39827;49.652;18.770;2023-03-01T08:22:41;382.13;;;354.45;;
53915;SDS011;39827;49.652;18.770;2023-03-01T08:25:07;364.70;;;338.27;;
53915;SDS011;39827;49.652;18.770;2023-03-01T08:27:33;324.88;;;301.73;;
53915;SDS011;39827;49.652;18.770;2023-03-01T08:29:58;306.20;;;283.42;;
53915;SDS011;39827;49.652;18.770;2023-03-01T08:32:23;342.30;;;317.17;;
53915;SDS011;39827;49.652;18.770;2023-03-01T08:34:49;345.83;;;321.33;;
53915;SDS011;39827;49.652;18.770;2023-03-01T08:37:14;325.52;;;302.25;;
53915;SDS011;39827;49.652;18.770;2023-03-01T08:39:39;322.27;;;298.92;;
53915;SDS011;39827;49.652;18.770;2023-03-01T08:42:05;350.20;;;326.00;;
53915;SDS011;39827;49.652;18.770;2023-03-01T08:44:30;328.88;;;305.20;;
53915;SDS011;39827;49.652;18.770;2023-03-01T08:46:56;314.15;;;291.88;;
53915;SDS011;39827;49.652;18.770;2023-03-01T08:49:22;350.05;;;325.05;;
53915;SDS011;39827;49.652;18.770;2023-03-01T08:51:48;320.42;;;297.42;;
53915;SDS011;39827;49.652;18.770;2023-03-01T08:54:15;298.52;;;277.13;;
53915;SDS011;39827;49.652;18.770;2023-03-01T08:56:42;327.55;;;304.10;;
53915;SDS011;39827;49.652;18.770;2023-03-01T08:59:08;340.60;;;316.00;;
53915;SDS011;39827;49.652;18.770;2023-03-01T09:01:35;338.42;;;314.13;;
53915;SDS011;39827;49.652;18.770;2023-03-01T09:04:02;310.15;;;287.58;;
53915;SDS011;39827;49.652;18.770;2023-03-01T09:06:29;292.25;;;269.60;;
53915;SDS011;39827;49.652;18.770;2023-03-01T09:08:56;263.35;;;243.35;;
53915;SDS011;39827;49.652;18.770;2023-03-01T09:11:21;272.70;;;252.75;;
53915;SDS011;39827;49.652;18.770;2023-03-01T09:13:47;248.63;;;231.10;;
53915;SDS011;39827;49.652;18.770;2023-03-01T09:16:14;253.23;;;236.18;;
53915;SDS011;39827;49.652;18.770;2023-03-01T09:18:41;231.50;;;215.75;;
53915;SDS011;39827;49.652;18.770;2023-03-01T09:21:11;255.65;;;237.68;;
53915;SDS011;39827;49.652;18.770;2023-03-01T09:23:41;261.05;;;243.48;;
53915;SDS011;39827;49.652;18.770;2023-03-01T09:26:09;247.45;;;230.65;;
53915;SDS011;39827;49.652;18.770;2023-03-01T09:28:36;238.20;;;220.85;;
53915;SDS011;39827;49.652;18.770;2023-03-01T09:31:02;223.65;;;207.23;;
53915;SDS011;39827;49.652;18.770;2023-03-01T09:33:29;235.93;;;219.38;;
53915;SDS011;39827;49.652;18.770;2023-03-01T09:35:57;243.10;;;226.13;;
53915;SDS011;39827;49.652;18.770;2023-03-01T09:38:22;212.27;;;197.30;;
53915;SDS011;39827;49.652;18.770;2023-03-01T09:40:48;211.25;;;196.65;;
53915;SDS011;39827;49.652;18.770;2023-03-01T09:45:55;251.65;;;234.10;;
53915;SDS011;39827;49.652;18.770;2023-03-01T09:48:26;265.30;;;247.25;;
53915;SDS011;39827;49.652;18.770;2023-03-01T09:50:56;226.02;;;209.77;;
53915;SDS011;39827;49.652;18.770;2023-03-01T09:53:23;230.13;;;214.23;;
53915;SDS011;39827;49.652;18.770;2023-03-01T09:55:59;187.27;;;174.00;;
53915;SDS011;39827;49.652;18.770;2023-03-01T10:03:43;270.00;;;250.80;;
53915;SDS011;39827;49.652;18.770;2023-03-01T10:06:21;252.27;;;234.20;;
53915;SDS011;39827;49.652;18.770;2023-03-01T10:11:21;267.52;;;248.60;;
53915;SDS011;39827;49.652;18.770;2023-03-01T10:13:54;219.10;;;202.93;;
53915;SDS011;39827;49.652;18.770;2023-03-01T10:16:38;257.20;;;238.57;;
53915;SDS011;39827;49.652;18.770;2023-03-01T10:19:24;230.18;;;213.38;;
53915;SDS011;39827;49.652;18.770;2023-03-01T10:24:22;229.60;;;212.80;;
53915;SDS011;39827;49.652;18.770;2023-03-01T10:26:49;229.88;;;213.27;;
53915;SDS011;39827;49.652;18.770;2023-03-01T10:29:31;238.93;;;220.98;;
53915;SDS011;39827;49.652;18.770;2023-03-01T10:32:14;262.52;;;243.00;;
53915;SDS011;39827;49.652;18.770;2023-03-01T10:34:39;279.17;;;258.27;;
53915;SDS011;39827;49.652;18.770;2023-03-01T10:37:10;275.10;;;254.38;;
53915;SDS011;39827;49.652;18.770;2023-03-01T10:39:35;277.52;;;256.17;;
53915;SDS011;39827;49.652;18.770;2023-03-01T10:42:03;311.80;;;288.60;;
53915;SDS011;39827;49.652;18.770;2023-03-01T10:44:49;322.98;;;297.88;;
53915;SDS011;39827;49.652;18.770;2023-03-01T10:47:16;280.45;;;258.88;;
53915;SDS011;39827;49.652;18.770;2023-03-01T10:49:58;311.65;;;287.25;;
53915;SDS011;39827;49.652;18.770;2023-03-01T10:52:35;366.13;;;338.17;;
53915;SDS011;39827;49.652;18.770;2023-03-01T10:55:04;320.80;;;296.27;;
53915;SDS011;39827;49.652;18.770;2023-03-01T10:57:35;313.75;;;290.05;;
53915;SDS011;39827;49.652;18.770;2023-03-01T11:00:24;315.92;;;291.67;;
53915;SDS011;39827;49.652;18.770;2023-03-01T11:03:13;299.05;;;276.80;;
53915;SDS011;39827;49.652;18.770;2023-03-01T11:08:34;364.20;;;337.63;;
53915;SDS011;39827;49.652;18.770;2023-03-01T11:16:43;241.52;;;222.27;;
53915;SDS011;39827;49.652;18.770;2023-03-01T11:21:37;188.25;;;172.98;;
53915;SDS011;39827;49.652;18.770;2023-03-01T11:24:09;202.85;;;187.70;;
53915;SDS011;39827;49.652;18.770;2023-03-01T11:26:38;292.50;;;270.67;;
53915;SDS011;39827;49.652;18.770;2023-03-01T11:29:12;288.13;;;266.52;;
53915;SDS011;39827;49.652;18.770;2023-03-01T11:31:46;250.77;;;231.63;;
53915;SDS011;39827;49.652;18.770;2023-03-01T11:34:14;238.65;;;220.32;;
53915;SDS011;39827;49.652;18.770;2023-03-01T11:36:52;266.55;;;246.52;;
53915;SDS011;39827;49.652;18.770;2023-03-01T11:39:37;288.30;;;266.30;;
53915;SDS011;39827;49.652;18.770;2023-03-01T11:42:12;290.58;;;268.30;;
53915;SDS011;39827;49.652;18.770;2023-03-01T11:44:43;273.63;;;252.45;;
53915;SDS011;39827;49.652;18.770;2023-03-01T11:52:43;295.42;;;272.52;;
53915;SDS011;39827;49.652;18.770;2023-03-01T12:04:28;304.23;;;281.10;;
53915;SDS011;39827;49.652;18.770;2023-03-01T12:06:59;293.45;;;271.27;;
53915;SDS011;39827;49.652;18.770;2023-03-01T12:09:38;342.55;;;317.10;;
53915;SDS011;39827;49.652;18.770;2023-03-01T12:12:27;309.55;;;286.63;;
53915;SDS011;39827;49.652;18.770;2023-03-01T12:20:47;336.73;;;311.95;;
53915;SDS011;39827;49.652;18.770;2023-03-01T12:23:48;270.92;;;250.20;;
53915;SDS011;39827;49.652;18.770;2023-03-01T12:26:36;269.65;;;249.30;;
53915;SDS011;39827;49.652;18.770;2023-03-01T12:29:10;320.40;;;296.75;;
53915;SDS011;39827;49.652;18.770;2023-03-01T12:49:11;250.23;;;231.70;;
53915;SDS011;39827;49.652;18.770;2023-03-01T12:51:40;259.67;;;241.05;;
53915;SDS011;39827;49.652;18.770;2023-03-01T12:54:20;258.50;;;239.35;;
53915;SDS011;39827;49.652;18.770;2023-03-01T12:56:52;255.50;;;236.15;;
53915;SDS011;39827;49.652;18.770;2023-03-01T13:01:56;272.05;;;252.05;;
53915;SDS011;39827;49.652;18.770;2023-03-01T13:04:37;294.10;;;273.27;;
53915;SDS011;39827;49.652;18.770;2023-03-01T13:12:51;289.27;;;268.90;;
53915;SDS011;39827;49.652;18.770;2023-03-01T13:15:26;305.85;;;284.10;;
53915;SDS011;39827;49.652;18.770;2023-03-01T13:17:58;257.73;;;239.23;;
53915;SDS011;39827;49.652;18.770;2023-03-01T13:23:08;274.98;;;255.93;;
53915;SDS011;39827;49.652;18.770;2023-03-01T13:25:35;306.23;;;284.50;;
53915;SDS011;39827;49.652;18.770;2023-03-01T13:31:09;309.08;;;287.85;;
53915;SDS011;39827;49.652;18.770;2023-03-01T13:34:01;312.63;;;291.38;;
53915;SDS011;39827;49.652;18.770;2023-03-01T13:39:14;294.20;;;274.00;;
53915;SDS011;39827;49.652;18.770;2023-03-01T13:41:53;280.33;;;261.45;;
53915;SDS011;39827;49.652;18.770;2023-03-01T13:46:46;287.45;;;267.95;;
53915;SDS011;39827;49.652;18.770;2023-03-01T13:49:16;277.48;;;258.08;;
53915;SDS011;39827;49.652;18.770;2023-03-01T13:51:48;263.40;;;245.85;;
53915;SDS011;39827;49.652;18.770;2023-03-01T13:54:15;261.67;;;243.65;;
53915;SDS011;39827;49.652;18.770;2023-03-01T13:56:49;307.42;;;286.38;;
53915;SDS011;39827;49.652;18.770;2023-03-01T13:59:18;279.63;;;260.52;;
53915;SDS011;39827;49.652;18.770;2023-03-01T14:01:52;359.67;;;335.73;;
53915;SDS011;39827;49.652;18.770;2023-03-01T14:06:52;389.17;;;362.10;;
53915;SDS011;39827;49.652;18.770;2023-03-01T14:09:33;371.70;;;345.42;;
53915;SDS011;39827;49.652;18.770;2023-03-01T14:15:27;367.23;;;340.90;;
53915;SDS011;39827;49.652;18.770;2023-03-01T14:20:42;390.95;;;363.25;;
53915;SDS011;39827;49.652;18.770;2023-03-01T14:23:14;410.17;;;380.45;;
53915;SDS011;39827;49.652;18.770;2023-03-01T14:25:47;406.30;;;377.48;;
53915;SDS011;39827;49.652;18.770;2023-03-01T14:28:24;429.60;;;398.67;;
53915;SDS011;39827;49.652;18.770;2023-03-01T14:30:56;447.17;;;414.45;;
53915;SDS011;39827;49.652;18.770;2023-03-01T14:35:55;527.83;;;489.27;;
53915;SDS011;39827;49.652;18.770;2023-03-01T14:38:21;571.80;;;529.55;;
53915;SDS011;39827;49.652;18.770;2023-03-01T14:40:50;568.60;;;526.67;;
53915;SDS011;39827;49.652;18.770;2023-03-01T14:43:20;644.75;;;597.42;;
53915;SDS011;39827;49.652;18.770;2023-03-01T14:45:50;666.75;;;618.72;;
53915;SDS011;39827;49.652;18.770;2023-03-01T14:48:19;633.70;;;588.47;;
53915;SDS011;39827;49.652;18.770;2023-03-01T14:50:48;672.38;;;624.50;;
53915;SDS011;39827;49.652;18.770;2023-03-01T14:53:35;645.88;;;599.67;;
53915;SDS011;39827;49.652;18.770;2023-03-01T14:56:02;711.75;;;663.08;;
53915;SDS011;39827;49.652;18.770;2023-03-01T14:58:31;696.03;;;648.75;;
53915;SDS011;39827;49.652;18.770;2023-03-01T15:01:02;750.30;;;699.85;;
53915;SDS011;39827;49.652;18.770;2023-03-01T15:03:33;767.50;;;716.35;;
53915;SDS011;39827;49.652;18.770;2023-03-01T15:06:05;796.10;;;742.22;;
53915;SDS011;39827;49.652;18.770;2023-03-01T15:08:33;825.13;;;769.63;;
53915;SDS011;39827;49.652;18.770;2023-03-01T15:11:04;803.85;;;749.42;;
53915;SDS011;39827;49.652;18.770;2023-03-01T15:13:42;755.42;;;704.03;;
53915;SDS011;39827;49.652;18.770;2023-03-01T15:18:37;670.20;;;624.53;;
53915;SDS011;39827;49.652;18.770;2023-03-01T15:21:08;760.00;;;708.55;;
53915;SDS011;39827;49.652;18.770;2023-03-01T15:26:05;495.35;;;460.38;;
53915;SDS011;39827;49.652;18.770;2023-03-01T15:28:37;549.75;;;511.42;;
53915;SDS011;39827;49.652;18.770;2023-03-01T15:31:21;658.10;;;613.10;;
53915;SDS011;39827;49.652;18.770;2023-03-01T15:33:48;625.72;;;582.75;;
53915;SDS011;39827;49.652;18.770;2023-03-01T15:36:48;573.72;;;533.85;;
53915;SDS011;39827;49.652;18.770;2023-03-01T15:39:23;669.42;;;623.63;;
53915;SDS011;39827;49.652;18.770;2023-03-01T15:42:06;677.25;;;630.78;;